X  Κλείσε Στοιχεία αεροπορικών μετεωρολογικών δεδομένων METAR     LYNI Nis Airport
θερμοκρασία
15°C θερμοκρασία
15°C Σημείο δρόσου
100% Υγρασία



Ανεμος
1 M/S
2 MPH
3 KM/H
2 KTS



110°
ANA
Τρέχουσες συνθήκες

βροχή βροχή
πίεση 1009.92 (hPa) - 29.82 (inHg)
Ορατότητα 2.8 (μίλι) - 4.5 (km)
Aεροδρόμιο
Κωδικός αεροδρομίου LYNI

Τοποθεσία: Nis Airport
Απόσταση: 63 (km)

Metar:
LYNI 261530Z 11002KT 4500 RA BKN050 15/15 Q1010 NOSIG

ώρα: 26-09-2022 17:30 CEST